sensor_id;sensor_type;location;lat;lon;timestamp;P1;durP1;ratioP1;P2;durP2;ratioP2
43837;SDS011;65998;46.256;7.534;2023-07-24T18:09:17;388.33;;;19.10;;
43837;SDS011;65998;46.256;7.534;2023-07-24T18:11:44;10.48;;;4.60;;
43837;SDS011;65998;46.256;7.534;2023-07-24T18:14:10;9.95;;;4.65;;
43837;SDS011;65998;46.256;7.534;2023-07-24T18:16:36;9.55;;;4.47;;
43837;SDS011;65998;46.256;7.534;2023-07-24T18:19:02;8.30;;;4.20;;
43837;SDS011;65998;46.256;7.534;2023-07-24T18:21:29;10.82;;;4.97;;
43837;SDS011;65998;46.256;7.534;2023-07-24T18:23:55;10.00;;;4.80;;
43837;SDS011;65998;46.256;7.534;2023-07-24T18:26:23;8.82;;;4.60;;
43837;SDS011;65998;46.256;7.534;2023-07-24T18:28:50;9.52;;;4.85;;
43837;SDS011;65998;46.256;7.534;2023-07-24T18:31:16;10.30;;;4.70;;
43837;SDS011;65998;46.256;7.534;2023-07-24T18:33:42;10.85;;;5.35;;
43837;SDS011;65998;46.256;7.534;2023-07-24T18:36:09;9.18;;;5.15;;
43837;SDS011;65998;46.256;7.534;2023-07-24T18:38:35;10.43;;;5.20;;
43837;SDS011;65998;46.256;7.534;2023-07-24T18:41:01;11.02;;;5.82;;
43837;SDS011;65998;46.256;7.534;2023-07-24T18:43:28;11.18;;;5.30;;
43837;SDS011;65998;46.256;7.534;2023-07-24T18:45:54;8.87;;;4.80;;
43837;SDS011;65998;46.256;7.534;2023-07-24T18:48:20;8.32;;;4.75;;
43837;SDS011;65998;46.256;7.534;2023-07-24T18:50:48;11.55;;;4.72;;
43837;SDS011;65998;46.256;7.534;2023-07-24T18:53:14;8.85;;;4.65;;
43837;SDS011;65998;46.256;7.534;2023-07-24T18:55:41;8.30;;;4.00;;
43837;SDS011;65998;46.256;7.534;2023-07-24T18:58:12;9.13;;;3.70;;
43837;SDS011;65998;46.256;7.534;2023-07-24T19:03:27;8.55;;;4.00;;
43837;SDS011;65998;46.256;7.534;2023-07-24T19:05:53;8.15;;;3.70;;
43837;SDS011;65998;46.256;7.534;2023-07-24T19:08:19;8.10;;;3.60;;
43837;SDS011;65998;46.256;7.534;2023-07-24T19:10:46;8.55;;;3.85;;
43837;SDS011;65998;46.256;7.534;2023-07-24T19:13:11;6.85;;;3.40;;
43837;SDS011;65998;46.256;7.534;2023-07-24T19:15:39;7.40;;;4.15;;
43837;SDS011;65998;46.256;7.534;2023-07-24T19:18:04;8.30;;;3.25;;
43837;SDS011;65998;46.256;7.534;2023-07-24T19:20:30;10.20;;;4.03;;
43837;SDS011;65998;46.256;7.534;2023-07-24T19:22:56;8.43;;;3.77;;
43837;SDS011;65998;46.256;7.534;2023-07-24T19:25:22;6.80;;;3.58;;
43837;SDS011;65998;46.256;7.534;2023-07-24T19:27:48;7.13;;;3.70;;
43837;SDS011;65998;46.256;7.534;2023-07-24T19:30:14;7.57;;;3.30;;
43837;SDS011;65998;46.256;7.534;2023-07-24T19:32:40;7.15;;;3.20;;
43837;SDS011;65998;46.256;7.534;2023-07-24T19:35:06;7.63;;;3.28;;
43837;SDS011;65998;46.256;7.534;2023-07-24T19:37:32;8.40;;;3.40;;
43837;SDS011;65998;46.256;7.534;2023-07-24T19:39:58;8.95;;;3.80;;
43837;SDS011;65998;46.256;7.534;2023-07-24T19:42:24;9.63;;;3.78;;
43837;SDS011;65998;46.256;7.534;2023-07-24T19:44:50;8.70;;;3.70;;
43837;SDS011;65998;46.256;7.534;2023-07-24T19:47:16;7.60;;;3.70;;
43837;SDS011;65998;46.256;7.534;2023-07-24T19:49:42;6.93;;;3.45;;
43837;SDS011;65998;46.256;7.534;2023-07-24T19:52:09;7.82;;;3.60;;
43837;SDS011;65998;46.256;7.534;2023-07-24T19:54:36;8.30;;;4.40;;
43837;SDS011;65998;46.256;7.534;2023-07-24T19:57:02;10.27;;;4.87;;
43837;SDS011;65998;46.256;7.534;2023-07-24T19:59:28;8.57;;;4.00;;
43837;SDS011;65998;46.256;7.534;2023-07-24T20:01:55;9.38;;;4.10;;
43837;SDS011;65998;46.256;7.534;2023-07-24T20:04:22;8.70;;;4.47;;
43837;SDS011;65998;46.256;7.534;2023-07-24T20:06:51;8.90;;;4.20;;
43837;SDS011;65998;46.256;7.534;2023-07-24T20:09:17;8.38;;;4.25;;
43837;SDS011;65998;46.256;7.534;2023-07-24T20:11:42;7.90;;;3.87;;
43837;SDS011;65998;46.256;7.534;2023-07-24T20:14:08;7.35;;;3.83;;
43837;SDS011;65998;46.256;7.534;2023-07-24T20:16:35;8.05;;;3.90;;
43837;SDS011;65998;46.256;7.534;2023-07-24T20:19:01;7.88;;;4.15;;
43837;SDS011;65998;46.256;7.534;2023-07-24T20:21:28;7.97;;;3.80;;
43837;SDS011;65998;46.256;7.534;2023-07-24T20:23:54;8.40;;;3.80;;
43837;SDS011;65998;46.256;7.534;2023-07-24T20:26:19;9.90;;;3.95;;
43837;SDS011;65998;46.256;7.534;2023-07-24T20:28:46;8.77;;;4.32;;
43837;SDS011;65998;46.256;7.534;2023-07-24T20:31:12;8.63;;;4.15;;
43837;SDS011;65998;46.256;7.534;2023-07-24T20:33:38;10.70;;;4.90;;
43837;SDS011;65998;46.256;7.534;2023-07-24T20:36:05;10.65;;;4.47;;
43837;SDS011;65998;46.256;7.534;2023-07-24T20:38:32;11.25;;;4.60;;
43837;SDS011;65998;46.256;7.534;2023-07-24T20:40:58;11.73;;;5.73;;
43837;SDS011;65998;46.256;7.534;2023-07-24T20:43:24;11.98;;;6.05;;
43837;SDS011;65998;46.256;7.534;2023-07-24T20:45:50;13.73;;;5.97;;
43837;SDS011;65998;46.256;7.534;2023-07-24T20:48:16;11.17;;;4.80;;
43837;SDS011;65998;46.256;7.534;2023-07-24T20:50:42;12.10;;;5.47;;
43837;SDS011;65998;46.256;7.534;2023-07-24T20:53:09;9.43;;;4.50;;
43837;SDS011;65998;46.256;7.534;2023-07-24T20:55:35;9.65;;;4.45;;
43837;SDS011;65998;46.256;7.534;2023-07-24T20:58:02;10.32;;;5.13;;
43837;SDS011;65998;46.256;7.534;2023-07-24T21:00:27;9.88;;;4.82;;
43837;SDS011;65998;46.256;7.534;2023-07-24T21:02:53;11.75;;;5.20;;
43837;SDS011;65998;46.256;7.534;2023-07-24T21:05:19;11.50;;;5.97;;
43837;SDS011;65998;46.256;7.534;2023-07-24T21:07:46;10.50;;;5.03;;
43837;SDS011;65998;46.256;7.534;2023-07-24T21:10:12;15.75;;;5.30;;
43837;SDS011;65998;46.256;7.534;2023-07-24T21:12:40;342.90;;;16.73;;
43837;SDS011;65998;46.256;7.534;2023-07-24T21:15:07;281.83;;;13.93;;
43837;SDS011;65998;46.256;7.534;2023-07-24T21:17:34;75.05;;;9.07;;
43837;SDS011;65998;46.256;7.534;2023-07-24T21:20:00;31.90;;;6.68;;
43837;SDS011;65998;46.256;7.534;2023-07-24T21:22:27;13.55;;;5.45;;
43837;SDS011;65998;46.256;7.534;2023-07-24T21:24:52;13.10;;;6.10;;
43837;SDS011;65998;46.256;7.534;2023-07-24T21:27:18;164.07;;;11.65;;
43837;SDS011;65998;46.256;7.534;2023-07-24T21:29:44;189.82;;;12.20;;
43837;SDS011;65998;46.256;7.534;2023-07-24T21:32:10;337.97;;;16.50;;
43837;SDS011;65998;46.256;7.534;2023-07-24T21:34:36;620.03;;;25.70;;
43837;SDS011;65998;46.256;7.534;2023-07-24T21:37:02;673.78;;;26.60;;
43837;SDS011;65998;46.256;7.534;2023-07-24T21:39:27;445.67;;;17.30;;
43837;SDS011;65998;46.256;7.534;2023-07-24T21:41:54;419.08;;;17.30;;
43837;SDS011;65998;46.256;7.534;2023-07-24T21:44:19;242.97;;;12.63;;
43837;SDS011;65998;46.256;7.534;2023-07-24T21:46:46;35.83;;;6.72;;
43837;SDS011;65998;46.256;7.534;2023-07-24T21:49:11;11.05;;;5.47;;
43837;SDS011;65998;46.256;7.534;2023-07-24T21:51:37;15.27;;;5.50;;
43837;SDS011;65998;46.256;7.534;2023-07-24T21:54:03;10.10;;;5.32;;
43837;SDS011;65998;46.256;7.534;2023-07-24T21:56:29;12.27;;;5.07;;
43837;SDS011;65998;46.256;7.534;2023-07-24T21:58:56;14.27;;;6.00;;
43837;SDS011;65998;46.256;7.534;2023-07-24T22:01:21;15.90;;;6.45;;
43837;SDS011;65998;46.256;7.534;2023-07-24T22:03:47;42.08;;;7.07;;
43837;SDS011;65998;46.256;7.534;2023-07-24T22:06:13;243.83;;;12.87;;
43837;SDS011;65998;46.256;7.534;2023-07-24T22:08:39;210.90;;;13.05;;
43837;SDS011;65998;46.256;7.534;2023-07-24T22:11:11;200.80;;;13.20;;
43837;SDS011;65998;46.256;7.534;2023-07-24T22:13:39;33.13;;;7.50;;
43837;SDS011;65998;46.256;7.534;2023-07-24T22:16:06;13.00;;;6.57;;
43837;SDS011;65998;46.256;7.534;2023-07-24T22:18:32;10.82;;;5.47;;
43837;SDS011;65998;46.256;7.534;2023-07-24T22:20:58;14.57;;;5.85;;
43837;SDS011;65998;46.256;7.534;2023-07-24T22:23:24;12.93;;;5.13;;
43837;SDS011;65998;46.256;7.534;2023-07-24T22:25:50;11.60;;;5.57;;
43837;SDS011;65998;46.256;7.534;2023-07-24T22:28:16;12.82;;;5.40;;
43837;SDS011;65998;46.256;7.534;2023-07-24T22:30:42;12.43;;;5.78;;
43837;SDS011;65998;46.256;7.534;2023-07-24T22:33:08;11.67;;;4.20;;
43837;SDS011;65998;46.256;7.534;2023-07-24T22:35:33;9.85;;;4.25;;
43837;SDS011;65998;46.256;7.534;2023-07-24T22:38:00;8.80;;;4.00;;
43837;SDS011;65998;46.256;7.534;2023-07-24T22:40:27;11.15;;;4.30;;
43837;SDS011;65998;46.256;7.534;2023-07-24T22:42:54;10.48;;;4.30;;
43837;SDS011;65998;46.256;7.534;2023-07-24T22:45:20;9.50;;;4.27;;
43837;SDS011;65998;46.256;7.534;2023-07-24T22:47:46;10.77;;;4.95;;
43837;SDS011;65998;46.256;7.534;2023-07-24T22:50:12;9.60;;;4.72;;
43837;SDS011;65998;46.256;7.534;2023-07-24T22:52:39;11.30;;;6.13;;
43837;SDS011;65998;46.256;7.534;2023-07-24T22:55:06;10.40;;;5.03;;
43837;SDS011;65998;46.256;7.534;2023-07-24T22:57:32;11.07;;;4.85;;
43837;SDS011;65998;46.256;7.534;2023-07-24T22:59:58;9.68;;;5.05;;
43837;SDS011;65998;46.256;7.534;2023-07-24T23:02:24;9.23;;;4.80;;
43837;SDS011;65998;46.256;7.534;2023-07-24T23:04:50;12.43;;;4.85;;
43837;SDS011;65998;46.256;7.534;2023-07-24T23:07:16;9.30;;;4.55;;
43837;SDS011;65998;46.256;7.534;2023-07-24T23:09:42;8.00;;;4.10;;
43837;SDS011;65998;46.256;7.534;2023-07-24T23:12:08;8.70;;;4.25;;
43837;SDS011;65998;46.256;7.534;2023-07-24T23:14:34;9.75;;;4.50;;
43837;SDS011;65998;46.256;7.534;2023-07-24T23:17:00;9.47;;;4.40;;
43837;SDS011;65998;46.256;7.534;2023-07-24T23:19:26;15.70;;;4.78;;
43837;SDS011;65998;46.256;7.534;2023-07-24T23:21:52;8.40;;;3.80;;
43837;SDS011;65998;46.256;7.534;2023-07-24T23:24:18;9.27;;;4.13;;
43837;SDS011;65998;46.256;7.534;2023-07-24T23:26:44;10.50;;;4.45;;
43837;SDS011;65998;46.256;7.534;2023-07-24T23:29:10;14.23;;;4.10;;
43837;SDS011;65998;46.256;7.534;2023-07-24T23:31:36;10.77;;;4.10;;
43837;SDS011;65998;46.256;7.534;2023-07-24T23:34:02;18.52;;;3.42;;
43837;SDS011;65998;46.256;7.534;2023-07-24T23:36:27;9.57;;;3.43;;
43837;SDS011;65998;46.256;7.534;2023-07-24T23:38:53;16.50;;;3.67;;
43837;SDS011;65998;46.256;7.534;2023-07-24T23:41:19;18.37;;;3.90;;
43837;SDS011;65998;46.256;7.534;2023-07-24T23:43:45;11.05;;;3.53;;
43837;SDS011;65998;46.256;7.534;2023-07-24T23:46:14;8.73;;;3.70;;
43837;SDS011;65998;46.256;7.534;2023-07-24T23:48:41;10.05;;;3.50;;
43837;SDS011;65998;46.256;7.534;2023-07-24T23:51:18;7.50;;;3.50;;
43837;SDS011;65998;46.256;7.534;2023-07-24T23:53:47;8.15;;;3.38;;
43837;SDS011;65998;46.256;7.534;2023-07-24T23:56:12;10.73;;;3.57;;
43837;SDS011;65998;46.256;7.534;2023-07-24T23:58:39;183.60;;;8.55;;
